sensor_id;sensor_type;location;lat;lon;timestamp;P1;durP1;ratioP1;P2;durP2;ratioP2
20462;SDS011;10390;53.566;9.980;2023-02-15T00:01:18;9.52;;;6.68;;
20462;SDS011;10390;53.566;9.980;2023-02-15T00:03:44;12.35;;;6.63;;
20462;SDS011;10390;53.566;9.980;2023-02-15T00:06:12;12.82;;;7.80;;
20462;SDS011;10390;53.566;9.980;2023-02-15T00:08:37;10.82;;;8.10;;
20462;SDS011;10390;53.566;9.980;2023-02-15T00:11:07;10.60;;;7.22;;
20462;SDS011;10390;53.566;9.980;2023-02-15T00:13:34;11.35;;;7.60;;
20462;SDS011;10390;53.566;9.980;2023-02-15T00:16:06;11.68;;;8.23;;
20462;SDS011;10390;53.566;9.980;2023-02-15T00:18:40;13.38;;;8.52;;
20462;SDS011;10390;53.566;9.980;2023-02-15T00:21:07;10.35;;;8.32;;
20462;SDS011;10390;53.566;9.980;2023-02-15T00:23:34;11.35;;;8.35;;
20462;SDS011;10390;53.566;9.980;2023-02-15T00:26:07;11.65;;;7.93;;
20462;SDS011;10390;53.566;9.980;2023-02-15T00:28:36;11.20;;;8.40;;
20462;SDS011;10390;53.566;9.980;2023-02-15T00:31:06;11.68;;;7.70;;
20462;SDS011;10390;53.566;9.980;2023-02-15T00:33:33;10.88;;;7.78;;
20462;SDS011;10390;53.566;9.980;2023-02-15T00:35:59;11.15;;;7.53;;
20462;SDS011;10390;53.566;9.980;2023-02-15T00:38:26;9.30;;;6.93;;
20462;SDS011;10390;53.566;9.980;2023-02-15T00:40:56;11.13;;;7.90;;
20462;SDS011;10390;53.566;9.980;2023-02-15T00:43:24;11.45;;;7.82;;
20462;SDS011;10390;53.566;9.980;2023-02-15T00:45:50;10.77;;;7.70;;
20462;SDS011;10390;53.566;9.980;2023-02-15T00:48:16;12.00;;;7.70;;
20462;SDS011;10390;53.566;9.980;2023-02-15T00:50:46;10.57;;;7.20;;
20462;SDS011;10390;53.566;9.980;2023-02-15T00:53:19;10.63;;;7.22;;
20462;SDS011;10390;53.566;9.980;2023-02-15T00:55:46;9.30;;;6.85;;
20462;SDS011;10390;53.566;9.980;2023-02-15T00:58:12;10.25;;;7.38;;
20462;SDS011;10390;53.566;9.980;2023-02-15T01:00:38;9.35;;;6.68;;
20462;SDS011;10390;53.566;9.980;2023-02-15T01:03:06;10.43;;;6.65;;
20462;SDS011;10390;53.566;9.980;2023-02-15T01:05:32;9.07;;;6.63;;
20462;SDS011;10390;53.566;9.980;2023-02-15T01:07:58;8.73;;;6.80;;
20462;SDS011;10390;53.566;9.980;2023-02-15T01:10:24;8.93;;;6.80;;
20462;SDS011;10390;53.566;9.980;2023-02-15T01:12:51;10.68;;;6.82;;
20462;SDS011;10390;53.566;9.980;2023-02-15T01:15:17;9.20;;;6.70;;
20462;SDS011;10390;53.566;9.980;2023-02-15T01:17:43;8.65;;;7.22;;
20462;SDS011;10390;53.566;9.980;2023-02-15T01:20:14;10.13;;;7.10;;
20462;SDS011;10390;53.566;9.980;2023-02-15T01:22:40;9.55;;;6.80;;
20462;SDS011;10390;53.566;9.980;2023-02-15T01:25:06;9.50;;;7.00;;
20462;SDS011;10390;53.566;9.980;2023-02-15T01:27:31;9.80;;;7.07;;
20462;SDS011;10390;53.566;9.980;2023-02-15T01:29:57;9.52;;;7.10;;
20462;SDS011;10390;53.566;9.980;2023-02-15T01:32:22;10.40;;;7.18;;
20462;SDS011;10390;53.566;9.980;2023-02-15T01:34:48;10.30;;;7.63;;
20462;SDS011;10390;53.566;9.980;2023-02-15T01:37:14;9.23;;;7.32;;
20462;SDS011;10390;53.566;9.980;2023-02-15T01:39:39;11.60;;;8.13;;
20462;SDS011;10390;53.566;9.980;2023-02-15T01:42:05;10.05;;;7.57;;
20462;SDS011;10390;53.566;9.980;2023-02-15T01:47:38;10.02;;;7.20;;
20462;SDS011;10390;53.566;9.980;2023-02-15T01:50:25;9.77;;;7.63;;
20462;SDS011;10390;53.566;9.980;2023-02-15T01:52:58;10.18;;;7.18;;
20462;SDS011;10390;53.566;9.980;2023-02-15T01:55:55;9.65;;;7.30;;
20462;SDS011;10390;53.566;9.980;2023-02-15T01:58:24;8.85;;;7.45;;
20462;SDS011;10390;53.566;9.980;2023-02-15T02:00:52;10.82;;;7.82;;
20462;SDS011;10390;53.566;9.980;2023-02-15T02:03:20;10.25;;;6.97;;
20462;SDS011;10390;53.566;9.980;2023-02-15T02:06:11;11.05;;;7.60;;
20462;SDS011;10390;53.566;9.980;2023-02-15T02:08:38;8.75;;;6.97;;
20462;SDS011;10390;53.566;9.980;2023-02-15T02:11:09;8.65;;;6.50;;
20462;SDS011;10390;53.566;9.980;2023-02-15T02:13:36;7.45;;;6.00;;
20462;SDS011;10390;53.566;9.980;2023-02-15T02:16:04;8.63;;;6.43;;
20462;SDS011;10390;53.566;9.980;2023-02-15T02:43:33;8.55;;;6.40;;
20462;SDS011;10390;53.566;9.980;2023-02-15T02:49:51;9.43;;;6.85;;
20462;SDS011;10390;53.566;9.980;2023-02-15T02:58:11;9.40;;;6.93;;
20462;SDS011;10390;53.566;9.980;2023-02-15T03:00:51;10.02;;;7.25;;
20462;SDS011;10390;53.566;9.980;2023-02-15T03:06:22;9.93;;;7.32;;
20462;SDS011;10390;53.566;9.980;2023-02-15T03:08:58;10.23;;;6.72;;
20462;SDS011;10390;53.566;9.980;2023-02-15T03:12:06;8.88;;;6.85;;
20462;SDS011;10390;53.566;9.980;2023-02-15T03:14:44;8.75;;;6.57;;
20462;SDS011;10390;53.566;9.980;2023-02-15T03:17:17;10.85;;;7.18;;
20462;SDS011;10390;53.566;9.980;2023-02-15T03:19:45;9.23;;;7.00;;
20462;SDS011;10390;53.566;9.980;2023-02-15T03:22:17;8.48;;;6.50;;
20462;SDS011;10390;53.566;9.980;2023-02-15T03:24:53;9.88;;;6.25;;
20462;SDS011;10390;53.566;9.980;2023-02-15T03:27:22;8.60;;;6.80;;
20462;SDS011;10390;53.566;9.980;2023-02-15T03:29:52;9.60;;;6.65;;
20462;SDS011;10390;53.566;9.980;2023-02-15T03:32:20;9.10;;;6.63;;
20462;SDS011;10390;53.566;9.980;2023-02-15T03:34:47;8.70;;;5.90;;
20462;SDS011;10390;53.566;9.980;2023-02-15T03:37:47;8.95;;;6.10;;
20462;SDS011;10390;53.566;9.980;2023-02-15T03:40:34;8.25;;;6.13;;
20462;SDS011;10390;53.566;9.980;2023-02-15T03:43:34;9.30;;;6.40;;
20462;SDS011;10390;53.566;9.980;2023-02-15T03:46:30;9.27;;;6.63;;
20462;SDS011;10390;53.566;9.980;2023-02-15T03:49:18;8.35;;;6.00;;
20462;SDS011;10390;53.566;9.980;2023-02-15T03:51:46;9.02;;;6.10;;
20462;SDS011;10390;53.566;9.980;2023-02-15T03:54:17;8.23;;;5.97;;
20462;SDS011;10390;53.566;9.980;2023-02-15T03:57:10;9.52;;;6.40;;
20462;SDS011;10390;53.566;9.980;2023-02-15T03:59:57;8.63;;;6.57;;
20462;SDS011;10390;53.566;9.980;2023-02-15T04:02:46;9.10;;;6.20;;
20462;SDS011;10390;53.566;9.980;2023-02-15T04:05:32;10.23;;;7.50;;
20462;SDS011;10390;53.566;9.980;2023-02-15T04:07:58;8.73;;;6.68;;
20462;SDS011;10390;53.566;9.980;2023-02-15T04:10:23;8.35;;;6.60;;
20462;SDS011;10390;53.566;9.980;2023-02-15T04:13:08;7.82;;;6.20;;
20462;SDS011;10390;53.566;9.980;2023-02-15T04:15:33;9.60;;;7.25;;
20462;SDS011;10390;53.566;9.980;2023-02-15T04:18:17;7.85;;;6.13;;
20462;SDS011;10390;53.566;9.980;2023-02-15T04:20:46;8.15;;;6.30;;
20462;SDS011;10390;53.566;9.980;2023-02-15T04:23:30;7.97;;;6.22;;
20462;SDS011;10390;53.566;9.980;2023-02-15T04:26:14;8.55;;;6.35;;
20462;SDS011;10390;53.566;9.980;2023-02-15T04:28:40;8.98;;;6.70;;
20462;SDS011;10390;53.566;9.980;2023-02-15T04:31:06;8.93;;;6.38;;
20462;SDS011;10390;53.566;9.980;2023-02-15T04:33:31;8.95;;;6.82;;
20462;SDS011;10390;53.566;9.980;2023-02-15T04:35:57;8.20;;;6.22;;
20462;SDS011;10390;53.566;9.980;2023-02-15T04:38:22;7.78;;;6.38;;
20462;SDS011;10390;53.566;9.980;2023-02-15T04:40:51;7.50;;;5.90;;
20462;SDS011;10390;53.566;9.980;2023-02-15T04:43:18;8.95;;;5.85;;
20462;SDS011;10390;53.566;9.980;2023-02-15T04:45:47;7.45;;;5.53;;
20462;SDS011;10390;53.566;9.980;2023-02-15T04:48:15;7.20;;;5.43;;
20462;SDS011;10390;53.566;9.980;2023-02-15T04:50:41;8.30;;;5.90;;
20462;SDS011;10390;53.566;9.980;2023-02-15T04:53:06;7.40;;;5.32;;
20462;SDS011;10390;53.566;9.980;2023-02-15T04:55:32;7.15;;;5.45;;
20462;SDS011;10390;53.566;9.980;2023-02-15T04:57:57;8.00;;;5.70;;
20462;SDS011;10390;53.566;9.980;2023-02-15T05:00:23;8.00;;;5.80;;
20462;SDS011;10390;53.566;9.980;2023-02-15T05:02:49;8.25;;;6.22;;
20462;SDS011;10390;53.566;9.980;2023-02-15T05:05:14;8.48;;;6.40;;
20462;SDS011;10390;53.566;9.980;2023-02-15T05:07:41;7.82;;;5.85;;
20462;SDS011;10390;53.566;9.980;2023-02-15T05:10:07;10.27;;;5.72;;
20462;SDS011;10390;53.566;9.980;2023-02-15T05:12:33;7.53;;;5.80;;
20462;SDS011;10390;53.566;9.980;2023-02-15T05:14:58;7.60;;;5.70;;
20462;SDS011;10390;53.566;9.980;2023-02-15T05:17:24;8.80;;;6.15;;
20462;SDS011;10390;53.566;9.980;2023-02-15T05:19:49;7.97;;;5.95;;
20462;SDS011;10390;53.566;9.980;2023-02-15T05:22:15;9.40;;;6.72;;
20462;SDS011;10390;53.566;9.980;2023-02-15T05:24:40;8.38;;;6.30;;
20462;SDS011;10390;53.566;9.980;2023-02-15T05:27:25;8.40;;;6.53;;
20462;SDS011;10390;53.566;9.980;2023-02-15T05:30:09;8.45;;;6.07;;
20462;SDS011;10390;53.566;9.980;2023-02-15T05:32:36;7.68;;;5.60;;
20462;SDS011;10390;53.566;9.980;2023-02-15T05:35:03;8.18;;;5.82;;
20462;SDS011;10390;53.566;9.980;2023-02-15T05:37:30;8.02;;;5.90;;
20462;SDS011;10390;53.566;9.980;2023-02-15T05:39:56;8.15;;;6.30;;
20462;SDS011;10390;53.566;9.980;2023-02-15T05:42:21;7.28;;;6.05;;
20462;SDS011;10390;53.566;9.980;2023-02-15T05:44:47;8.18;;;6.05;;
20462;SDS011;10390;53.566;9.980;2023-02-15T05:47:13;7.97;;;5.53;;
20462;SDS011;10390;53.566;9.980;2023-02-15T05:49:38;7.45;;;5.13;;
20462;SDS011;10390;53.566;9.980;2023-02-15T05:52:04;8.07;;;5.53;;
20462;SDS011;10390;53.566;9.980;2023-02-15T05:54:30;7.53;;;5.00;;
20462;SDS011;10390;53.566;9.980;2023-02-15T05:56:55;7.10;;;5.00;;
20462;SDS011;10390;53.566;9.980;2023-02-15T05:59:21;7.78;;;5.40;;
20462;SDS011;10390;53.566;9.980;2023-02-15T06:01:47;8.32;;;5.43;;
20462;SDS011;10390;53.566;9.980;2023-02-15T06:04:12;7.57;;;5.45;;
20462;SDS011;10390;53.566;9.980;2023-02-15T06:06:38;10.77;;;5.40;;
20462;SDS011;10390;53.566;9.980;2023-02-15T06:09:03;7.90;;;5.10;;
20462;SDS011;10390;53.566;9.980;2023-02-15T06:11:29;7.68;;;5.20;;
20462;SDS011;10390;53.566;9.980;2023-02-15T06:13:55;7.82;;;5.03;;
20462;SDS011;10390;53.566;9.980;2023-02-15T06:16:21;8.13;;;5.03;;
20462;SDS011;10390;53.566;9.980;2023-02-15T06:18:47;7.95;;;5.03;;
20462;SDS011;10390;53.566;9.980;2023-02-15T06:21:12;9.38;;;5.53;;
20462;SDS011;10390;53.566;9.980;2023-02-15T06:23:38;8.25;;;4.82;;
20462;SDS011;10390;53.566;9.980;2023-02-15T06:26:04;9.05;;;5.53;;
20462;SDS011;10390;53.566;9.980;2023-02-15T06:28:30;8.15;;;5.35;;
20462;SDS011;10390;53.566;9.980;2023-02-15T06:30:55;8.05;;;5.75;;
20462;SDS011;10390;53.566;9.980;2023-02-15T06:33:21;12.40;;;5.88;;
20462;SDS011;10390;53.566;9.980;2023-02-15T06:35:47;10.70;;;5.78;;
20462;SDS011;10390;53.566;9.980;2023-02-15T06:38:12;13.18;;;6.07;;
20462;SDS011;10390;53.566;9.980;2023-02-15T06:40:38;13.40;;;6.20;;
20462;SDS011;10390;53.566;9.980;2023-02-15T06:43:04;12.73;;;6.57;;
20462;SDS011;10390;53.566;9.980;2023-02-15T06:45:29;10.65;;;5.88;;
20462;SDS011;10390;53.566;9.980;2023-02-15T06:47:55;12.60;;;5.85;;
20462;SDS011;10390;53.566;9.980;2023-02-15T06:50:20;13.15;;;6.95;;
20462;SDS011;10390;53.566;9.980;2023-02-15T06:52:46;17.52;;;6.43;;
20462;SDS011;10390;53.566;9.980;2023-02-15T06:55:12;11.93;;;6.28;;
20462;SDS011;10390;53.566;9.980;2023-02-15T06:57:37;9.10;;;5.72;;
20462;SDS011;10390;53.566;9.980;2023-02-15T07:00:03;12.32;;;6.47;;
20462;SDS011;10390;53.566;9.980;2023-02-15T07:02:30;11.88;;;6.32;;
20462;SDS011;10390;53.566;9.980;2023-02-15T07:04:56;12.13;;;6.18;;
20462;SDS011;10390;53.566;9.980;2023-02-15T07:07:21;11.60;;;6.03;;
20462;SDS011;10390;53.566;9.980;2023-02-15T07:09:47;11.77;;;5.90;;
20462;SDS011;10390;53.566;9.980;2023-02-15T07:12:13;12.73;;;6.40;;
20462;SDS011;10390;53.566;9.980;2023-02-15T07:14:57;9.38;;;5.50;;
20462;SDS011;10390;53.566;9.980;2023-02-15T07:17:23;13.27;;;5.57;;
20462;SDS011;10390;53.566;9.980;2023-02-15T07:19:48;11.25;;;5.80;;
20462;SDS011;10390;53.566;9.980;2023-02-15T07:22:14;10.60;;;6.03;;
20462;SDS011;10390;53.566;9.980;2023-02-15T07:24:40;11.20;;;5.78;;
20462;SDS011;10390;53.566;9.980;2023-02-15T07:27:08;8.85;;;5.82;;
20462;SDS011;10390;53.566;9.980;2023-02-15T07:29:34;9.40;;;5.55;;
20462;SDS011;10390;53.566;9.980;2023-02-15T07:31:59;10.80;;;6.55;;
20462;SDS011;10390;53.566;9.980;2023-02-15T07:34:25;10.95;;;5.75;;
20462;SDS011;10390;53.566;9.980;2023-02-15T07:36:51;9.40;;;5.78;;
20462;SDS011;10390;53.566;9.980;2023-02-15T07:39:16;9.40;;;5.50;;
20462;SDS011;10390;53.566;9.980;2023-02-15T07:41:42;9.85;;;6.03;;
20462;SDS011;10390;53.566;9.980;2023-02-15T07:44:11;9.60;;;5.85;;
20462;SDS011;10390;53.566;9.980;2023-02-15T07:46:38;10.32;;;5.90;;
20462;SDS011;10390;53.566;9.980;2023-02-15T07:49:04;9.27;;;6.03;;
20462;SDS011;10390;53.566;9.980;2023-02-15T07:51:29;10.07;;;6.15;;
20462;SDS011;10390;53.566;9.980;2023-02-15T07:53:55;14.10;;;6.50;;
20462;SDS011;10390;53.566;9.980;2023-02-15T07:56:20;13.40;;;6.35;;
20462;SDS011;10390;53.566;9.980;2023-02-15T07:58:46;13.65;;;6.25;;
20462;SDS011;10390;53.566;9.980;2023-02-15T08:03:55;11.48;;;6.38;;
20462;SDS011;10390;53.566;9.980;2023-02-15T08:06:24;13.13;;;6.65;;
20462;SDS011;10390;53.566;9.980;2023-02-15T08:08:51;11.15;;;6.40;;
20462;SDS011;10390;53.566;9.980;2023-02-15T08:11:18;14.30;;;6.72;;
20462;SDS011;10390;53.566;9.980;2023-02-15T08:16:36;13.15;;;6.25;;
20462;SDS011;10390;53.566;9.980;2023-02-15T08:19:30;13.48;;;6.53;;
20462;SDS011;10390;53.566;9.980;2023-02-15T08:21:58;12.40;;;6.53;;
20462;SDS011;10390;53.566;9.980;2023-02-15T08:24:26;12.02;;;6.57;;
20462;SDS011;10390;53.566;9.980;2023-02-15T08:26:53;16.38;;;7.28;;
20462;SDS011;10390;53.566;9.980;2023-02-15T08:29:20;10.77;;;5.97;;
20462;SDS011;10390;53.566;9.980;2023-02-15T08:31:48;12.80;;;6.32;;
20462;SDS011;10390;53.566;9.980;2023-02-15T08:34:15;14.32;;;6.63;;
20462;SDS011;10390;53.566;9.980;2023-02-15T08:40:42;14.65;;;6.30;;
20462;SDS011;10390;53.566;9.980;2023-02-15T08:43:07;14.88;;;6.30;;
20462;SDS011;10390;53.566;9.980;2023-02-15T08:45:33;13.93;;;6.20;;
20462;SDS011;10390;53.566;9.980;2023-02-15T08:47:58;11.23;;;6.10;;
20462;SDS011;10390;53.566;9.980;2023-02-15T08:50:24;14.85;;;6.63;;
20462;SDS011;10390;53.566;9.980;2023-02-15T08:52:50;12.93;;;6.80;;
20462;SDS011;10390;53.566;9.980;2023-02-15T08:55:15;13.05;;;6.28;;
20462;SDS011;10390;53.566;9.980;2023-02-15T08:57:41;12.65;;;6.32;;
20462;SDS011;10390;53.566;9.980;2023-02-15T09:00:09;15.45;;;6.80;;
20462;SDS011;10390;53.566;9.980;2023-02-15T09:02:36;11.82;;;5.70;;
20462;SDS011;10390;53.566;9.980;2023-02-15T09:05:02;13.48;;;6.10;;
20462;SDS011;10390;53.566;9.980;2023-02-15T09:07:28;15.45;;;6.38;;
20462;SDS011;10390;53.566;9.980;2023-02-15T09:09:54;13.18;;;6.10;;
20462;SDS011;10390;53.566;9.980;2023-02-15T09:12:20;20.58;;;7.05;;
20462;SDS011;10390;53.566;9.980;2023-02-15T09:14:45;14.77;;;6.80;;
20462;SDS011;10390;53.566;9.980;2023-02-15T09:17:11;16.17;;;6.72;;
20462;SDS011;10390;53.566;9.980;2023-02-15T09:19:37;14.35;;;6.80;;
20462;SDS011;10390;53.566;9.980;2023-02-15T09:22:02;14.02;;;7.07;;
20462;SDS011;10390;53.566;9.980;2023-02-15T09:24:31;18.35;;;7.25;;
20462;SDS011;10390;53.566;9.980;2023-02-15T09:26:57;16.60;;;7.57;;
20462;SDS011;10390;53.566;9.980;2023-02-15T09:29:23;13.52;;;7.00;;
20462;SDS011;10390;53.566;9.980;2023-02-15T09:31:49;13.18;;;6.72;;
20462;SDS011;10390;53.566;9.980;2023-02-15T09:34:16;15.30;;;6.55;;
20462;SDS011;10390;53.566;9.980;2023-02-15T09:36:44;17.40;;;7.10;;
20462;SDS011;10390;53.566;9.980;2023-02-15T09:50:00;13.43;;;6.53;;
20462;SDS011;10390;53.566;9.980;2023-02-15T10:07:05;11.27;;;6.25;;
20462;SDS011;10390;53.566;9.980;2023-02-15T10:09:56;13.07;;;6.65;;
20462;SDS011;10390;53.566;9.980;2023-02-15T10:26:04;8.40;;;5.80;;
20462;SDS011;10390;53.566;9.980;2023-02-15T10:34:15;10.38;;;6.50;;
20462;SDS011;10390;53.566;9.980;2023-02-15T10:37:01;10.98;;;6.70;;
20462;SDS011;10390;53.566;9.980;2023-02-15T10:39:55;11.80;;;7.15;;
20462;SDS011;10390;53.566;9.980;2023-02-15T10:55:56;9.43;;;6.20;;
20462;SDS011;10390;53.566;9.980;2023-02-15T11:06:37;9.50;;;6.38;;
20462;SDS011;10390;53.566;9.980;2023-02-15T11:09:11;9.02;;;5.93;;
20462;SDS011;10390;53.566;9.980;2023-02-15T11:11:41;10.05;;;6.30;;
20462;SDS011;10390;53.566;9.980;2023-02-15T11:14:23;8.80;;;5.95;;
20462;SDS011;10390;53.566;9.980;2023-02-15T11:17:02;9.10;;;5.82;;
20462;SDS011;10390;53.566;9.980;2023-02-15T11:19:42;8.63;;;5.85;;
20462;SDS011;10390;53.566;9.980;2023-02-15T11:22:23;8.73;;;5.80;;
20462;SDS011;10390;53.566;9.980;2023-02-15T11:24:49;8.52;;;6.00;;
20462;SDS011;10390;53.566;9.980;2023-02-15T11:27:18;9.38;;;5.90;;
20462;SDS011;10390;53.566;9.980;2023-02-15T11:30:09;8.25;;;5.97;;
20462;SDS011;10390;53.566;9.980;2023-02-15T11:32:40;8.73;;;6.05;;
20462;SDS011;10390;53.566;9.980;2023-02-15T11:37:37;9.45;;;6.35;;
20462;SDS011;10390;53.566;9.980;2023-02-15T11:40:32;9.30;;;6.47;;
20462;SDS011;10390;53.566;9.980;2023-02-15T11:43:06;9.45;;;6.05;;
20462;SDS011;10390;53.566;9.980;2023-02-15T11:45:41;8.05;;;5.60;;
20462;SDS011;10390;53.566;9.980;2023-02-15T11:48:10;8.80;;;6.00;;
20462;SDS011;10390;53.566;9.980;2023-02-15T11:50:38;8.93;;;6.18;;
20462;SDS011;10390;53.566;9.980;2023-02-15T11:53:06;9.30;;;5.95;;
20462;SDS011;10390;53.566;9.980;2023-02-15T11:55:38;8.55;;;6.10;;
20462;SDS011;10390;53.566;9.980;2023-02-15T11:58:08;8.40;;;6.40;;
20462;SDS011;10390;53.566;9.980;2023-02-15T12:00:45;8.45;;;6.65;;
20462;SDS011;10390;53.566;9.980;2023-02-15T12:03:18;8.38;;;6.30;;
20462;SDS011;10390;53.566;9.980;2023-02-15T12:05:49;8.05;;;5.90;;
20462;SDS011;10390;53.566;9.980;2023-02-15T12:08:25;8.50;;;6.40;;
20462;SDS011;10390;53.566;9.980;2023-02-15T12:14:11;8.68;;;6.45;;
20462;SDS011;10390;53.566;9.980;2023-02-15T12:16:50;8.43;;;6.00;;
20462;SDS011;10390;53.566;9.980;2023-02-15T12:21:51;7.72;;;5.53;;
20462;SDS011;10390;53.566;9.980;2023-02-15T12:24:19;8.20;;;6.10;;
20462;SDS011;10390;53.566;9.980;2023-02-15T12:26:58;8.70;;;6.50;;
20462;SDS011;10390;53.566;9.980;2023-02-15T12:29:29;9.55;;;6.70;;
20462;SDS011;10390;53.566;9.980;2023-02-15T12:32:00;7.72;;;6.10;;
20462;SDS011;10390;53.566;9.980;2023-02-15T12:34:29;8.85;;;6.32;;
20462;SDS011;10390;53.566;9.980;2023-02-15T12:36:57;9.57;;;6.38;;
20462;SDS011;10390;53.566;9.980;2023-02-15T12:39:30;8.23;;;5.90;;
20462;SDS011;10390;53.566;9.980;2023-02-15T12:41:59;9.80;;;6.65;;
20462;SDS011;10390;53.566;9.980;2023-02-15T12:44:28;9.13;;;5.93;;
20462;SDS011;10390;53.566;9.980;2023-02-15T12:49:23;7.45;;;5.60;;
20462;SDS011;10390;53.566;9.980;2023-02-15T12:51:50;8.98;;;6.30;;
20462;SDS011;10390;53.566;9.980;2023-02-15T12:56:49;7.43;;;5.78;;
20462;SDS011;10390;53.566;9.980;2023-02-15T12:59:21;8.45;;;6.30;;
20462;SDS011;10390;53.566;9.980;2023-02-15T13:01:47;8.48;;;6.30;;
20462;SDS011;10390;53.566;9.980;2023-02-15T13:04:26;9.45;;;6.32;;
20462;SDS011;10390;53.566;9.980;2023-02-15T13:06:57;6.78;;;5.60;;
20462;SDS011;10390;53.566;9.980;2023-02-15T13:11:56;7.95;;;5.53;;
20462;SDS011;10390;53.566;9.980;2023-02-15T13:14:33;9.10;;;5.53;;
20462;SDS011;10390;53.566;9.980;2023-02-15T13:17:02;8.07;;;5.72;;
20462;SDS011;10390;53.566;9.980;2023-02-15T13:19:51;6.93;;;5.47;;
20462;SDS011;10390;53.566;9.980;2023-02-15T13:22:18;7.38;;;5.78;;
20462;SDS011;10390;53.566;9.980;2023-02-15T13:24:52;7.57;;;5.75;;
20462;SDS011;10390;53.566;9.980;2023-02-15T13:27:21;8.13;;;6.35;;
20462;SDS011;10390;53.566;9.980;2023-02-15T13:29:51;7.57;;;5.53;;
20462;SDS011;10390;53.566;9.980;2023-02-15T13:32:38;7.43;;;6.10;;
20462;SDS011;10390;53.566;9.980;2023-02-15T13:35:10;7.18;;;5.38;;
20462;SDS011;10390;53.566;9.980;2023-02-15T13:42:49;9.90;;;5.68;;
20462;SDS011;10390;53.566;9.980;2023-02-15T13:45:26;8.25;;;5.65;;
20462;SDS011;10390;53.566;9.980;2023-02-15T13:48:44;7.68;;;6.30;;
20462;SDS011;10390;53.566;9.980;2023-02-15T13:51:11;10.23;;;6.47;;
20462;SDS011;10390;53.566;9.980;2023-02-15T13:59:27;8.10;;;6.30;;
20462;SDS011;10390;53.566;9.980;2023-02-15T14:15:32;8.68;;;6.22;;
20462;SDS011;10390;53.566;9.980;2023-02-15T14:18:25;8.82;;;5.95;;
20462;SDS011;10390;53.566;9.980;2023-02-15T14:21:03;10.48;;;6.95;;
20462;SDS011;10390;53.566;9.980;2023-02-15T14:24:00;13.80;;;6.07;;
20462;SDS011;10390;53.566;9.980;2023-02-15T14:31:47;8.07;;;6.25;;
20462;SDS011;10390;53.566;9.980;2023-02-15T14:34:23;9.02;;;6.38;;
20462;SDS011;10390;53.566;9.980;2023-02-15T14:36:55;8.23;;;6.03;;
20462;SDS011;10390;53.566;9.980;2023-02-15T14:39:28;7.93;;;6.13;;
20462;SDS011;10390;53.566;9.980;2023-02-15T14:47:36;9.68;;;6.28;;
20462;SDS011;10390;53.566;9.980;2023-02-15T14:58:37;7.00;;;5.47;;
20462;SDS011;10390;53.566;9.980;2023-02-15T15:01:17;7.70;;;5.82;;
20462;SDS011;10390;53.566;9.980;2023-02-15T15:03:55;8.45;;;5.63;;
20462;SDS011;10390;53.566;9.980;2023-02-15T15:06:27;8.13;;;5.32;;
20462;SDS011;10390;53.566;9.980;2023-02-15T15:08:55;8.38;;;5.82;;
20462;SDS011;10390;53.566;9.980;2023-02-15T15:11:52;7.35;;;5.55;;
20462;SDS011;10390;53.566;9.980;2023-02-15T15:17:00;8.45;;;5.72;;
20462;SDS011;10390;53.566;9.980;2023-02-15T15:22:22;7.18;;;5.30;;
20462;SDS011;10390;53.566;9.980;2023-02-15T15:24:53;12.48;;;5.25;;
20462;SDS011;10390;53.566;9.980;2023-02-15T15:27:38;10.68;;;5.70;;
20462;SDS011;10390;53.566;9.980;2023-02-15T15:41:02;9.05;;;5.85;;
20462;SDS011;10390;53.566;9.980;2023-02-15T15:46:14;7.18;;;5.53;;
20462;SDS011;10390;53.566;9.980;2023-02-15T15:48:53;8.43;;;5.32;;
20462;SDS011;10390;53.566;9.980;2023-02-15T15:51:20;9.45;;;4.85;;
20462;SDS011;10390;53.566;9.980;2023-02-15T15:53:52;7.68;;;5.55;;
20462;SDS011;10390;53.566;9.980;2023-02-15T15:56:20;8.27;;;5.75;;
20462;SDS011;10390;53.566;9.980;2023-02-15T15:58:54;9.55;;;5.82;;
20462;SDS011;10390;53.566;9.980;2023-02-15T16:01:39;10.10;;;5.15;;
20462;SDS011;10390;53.566;9.980;2023-02-15T16:04:10;6.75;;;5.30;;
20462;SDS011;10390;53.566;9.980;2023-02-15T16:06:38;7.60;;;5.20;;
20462;SDS011;10390;53.566;9.980;2023-02-15T16:09:12;10.52;;;5.15;;
20462;SDS011;10390;53.566;9.980;2023-02-15T16:11:58;6.70;;;4.75;;
20462;SDS011;10390;53.566;9.980;2023-02-15T16:14:34;7.18;;;4.95;;
20462;SDS011;10390;53.566;9.980;2023-02-15T16:17:03;7.93;;;4.65;;
20462;SDS011;10390;53.566;9.980;2023-02-15T16:19:35;7.43;;;4.57;;
20462;SDS011;10390;53.566;9.980;2023-02-15T16:22:04;6.82;;;5.32;;
20462;SDS011;10390;53.566;9.980;2023-02-15T16:27:31;13.25;;;4.95;;
20462;SDS011;10390;53.566;9.980;2023-02-15T16:35:40;13.57;;;5.00;;
20462;SDS011;10390;53.566;9.980;2023-02-15T16:38:18;18.75;;;4.78;;
20462;SDS011;10390;53.566;9.980;2023-02-15T16:40:54;12.77;;;5.25;;
20462;SDS011;10390;53.566;9.980;2023-02-15T16:43:26;15.07;;;4.25;;
20462;SDS011;10390;53.566;9.980;2023-02-15T16:46:05;9.65;;;4.50;;
20462;SDS011;10390;53.566;9.980;2023-02-15T16:48:38;7.07;;;4.03;;
20462;SDS011;10390;53.566;9.980;2023-02-15T16:51:07;7.53;;;4.30;;
20462;SDS011;10390;53.566;9.980;2023-02-15T16:53:34;10.18;;;4.32;;
20462;SDS011;10390;53.566;9.980;2023-02-15T16:56:01;8.00;;;4.05;;
20462;SDS011;10390;53.566;9.980;2023-02-15T17:01:07;7.53;;;4.40;;
20462;SDS011;10390;53.566;9.980;2023-02-15T17:03:35;8.32;;;4.50;;
20462;SDS011;10390;53.566;9.980;2023-02-15T17:06:02;8.48;;;4.65;;
20462;SDS011;10390;53.566;9.980;2023-02-15T17:16:28;10.60;;;5.90;;
20462;SDS011;10390;53.566;9.980;2023-02-15T17:19:09;12.52;;;6.22;;
20462;SDS011;10390;53.566;9.980;2023-02-15T17:21:41;14.05;;;5.63;;
20462;SDS011;10390;53.566;9.980;2023-02-15T17:24:17;11.38;;;5.57;;
20462;SDS011;10390;53.566;9.980;2023-02-15T17:26:49;14.57;;;6.18;;
20462;SDS011;10390;53.566;9.980;2023-02-15T17:29:50;11.55;;;5.18;;
20462;SDS011;10390;53.566;9.980;2023-02-15T17:32:21;13.50;;;5.85;;
20462;SDS011;10390;53.566;9.980;2023-02-15T17:35:05;15.32;;;6.75;;
20462;SDS011;10390;53.566;9.980;2023-02-15T17:38:05;13.95;;;6.88;;
20462;SDS011;10390;53.566;9.980;2023-02-15T17:40:43;18.05;;;5.93;;
20462;SDS011;10390;53.566;9.980;2023-02-15T17:43:09;13.15;;;5.55;;
20462;SDS011;10390;53.566;9.980;2023-02-15T17:45:36;17.00;;;7.03;;
20462;SDS011;10390;53.566;9.980;2023-02-15T17:48:09;16.85;;;5.70;;
20462;SDS011;10390;53.566;9.980;2023-02-15T17:50:55;18.30;;;5.30;;
20462;SDS011;10390;53.566;9.980;2023-02-15T17:53:31;18.75;;;5.70;;
20462;SDS011;10390;53.566;9.980;2023-02-15T17:55:58;14.50;;;5.45;;
20462;SDS011;10390;53.566;9.980;2023-02-15T17:58:23;8.90;;;4.50;;
20462;SDS011;10390;53.566;9.980;2023-02-15T18:00:56;10.68;;;5.38;;
20462;SDS011;10390;53.566;9.980;2023-02-15T18:03:44;11.75;;;5.10;;
20462;SDS011;10390;53.566;9.980;2023-02-15T18:06:30;11.13;;;5.03;;
20462;SDS011;10390;53.566;9.980;2023-02-15T18:09:16;11.77;;;5.28;;
20462;SDS011;10390;53.566;9.980;2023-02-15T18:12:05;8.65;;;5.07;;
20462;SDS011;10390;53.566;9.980;2023-02-15T18:14:45;14.32;;;5.45;;
20462;SDS011;10390;53.566;9.980;2023-02-15T18:17:12;11.48;;;5.00;;
20462;SDS011;10390;53.566;9.980;2023-02-15T18:19:38;10.85;;;5.70;;
20462;SDS011;10390;53.566;9.980;2023-02-15T18:22:13;9.95;;;5.57;;
20462;SDS011;10390;53.566;9.980;2023-02-15T18:24:41;12.13;;;5.82;;
20462;SDS011;10390;53.566;9.980;2023-02-15T18:27:09;9.77;;;5.75;;
20462;SDS011;10390;53.566;9.980;2023-02-15T18:29:37;13.73;;;5.50;;
20462;SDS011;10390;53.566;9.980;2023-02-15T18:32:03;8.57;;;5.03;;
20462;SDS011;10390;53.566;9.980;2023-02-15T18:34:37;7.60;;;5.25;;
20462;SDS011;10390;53.566;9.980;2023-02-15T18:37:05;9.65;;;4.80;;
20462;SDS011;10390;53.566;9.980;2023-02-15T18:39:37;7.45;;;4.60;;
20462;SDS011;10390;53.566;9.980;2023-02-15T18:42:14;9.13;;;5.25;;